Time;durP1;ratioP1;P1;durP2;ratioP2;P2;SDS_P1;SDS_P2;PMS_P1;PMS_P2;Temp;Humidity;BMP_temperature;BMP_pressure;BME280_temperature;BME280_humidity;BME280_pressure;Samples;Min_cycle;Max_cycle;Signal;HPM_P1;HPM_P2
2022/03/13 00:00:21;;;;;;;6.07;5.35;;;21.30;28.50;;;;;;5150707;27;46867;-15
2022/03/13 00:02:49;;;;;;;6.43;5.55;;;21.20;28.50;;;;;;5150924;27;46966;-16
2022/03/13 00:05:16;;;;;;;6.57;5.75;;;21.30;28.50;;;;;;5150326;27;47923;-15
2022/03/13 00:07:45;;;;;;;7.45;5.68;;;21.30;28.50;;;;;;5150890;27;47451;-15
2022/03/13 00:10:11;;;;;;;6.22;5.63;;;21.30;28.50;;;;;;5150603;27;46868;-15
2022/03/13 00:12:38;;;;;;;7.85;6.07;;;21.30;28.40;;;;;;5150593;27;46847;-16
2022/03/13 00:15:12;;;;;;;7.05;5.93;;;21.20;28.50;;;;;;5150452;27;48107;-15
2022/03/13 00:17:39;;;;;;;6.53;5.68;;;21.20;28.50;;;;;;5150722;27;46969;-15
2022/03/13 00:20:08;;;;;;;6.40;5.80;;;21.20;28.50;;;;;;5150263;27;46923;-15
2022/03/13 00:22:35;;;;;;;7.55;5.72;;;21.20;28.40;;;;;;5150614;27;46919;-16
2022/03/13 00:25:05;;;;;;;6.47;5.70;;;21.20;28.40;;;;;;5150115;27;47807;-15
2022/03/13 00:27:34;;;;;;;7.53;5.68;;;21.20;28.50;;;;;;5150276;27;47423;-16
2022/03/13 00:30:01;;;;;;;6.13;5.28;;;21.20;28.50;;;;;;5150360;27;46796;-15
2022/03/13 00:32:28;;;;;;;7.25;5.70;;;21.20;28.50;;;;;;5150769;27;47113;-16
2022/03/13 00:34:55;;;;;;;7.10;5.85;;;21.20;28.90;;;;;;5150204;27;46814;-16
2022/03/13 00:37:21;;;;;;;6.15;5.50;;;21.20;28.40;;;;;;5150305;27;47203;-16
2022/03/13 00:39:49;;;;;;;6.20;5.50;;;21.20;28.40;;;;;;5150272;27;46848;-16
2022/03/13 00:42:18;;;;;;;6.88;5.60;;;21.20;28.40;;;;;;5150197;27;46909;-15
2022/03/13 00:44:44;;;;;;;6.20;5.30;;;21.20;28.40;;;;;;5149721;27;49081;-15
2022/03/13 00:47:11;;;;;;;6.75;5.75;;;21.10;28.40;;;;;;5150235;27;47422;-15
2022/03/13 00:49:38;;;;;;;7.53;5.75;;;21.10;28.40;;;;;;5150085;27;46914;-15
2022/03/13 00:52:05;;;;;;;6.15;5.53;;;21.20;28.90;;;;;;5149973;27;46973;-16
2022/03/13 00:54:33;;;;;;;6.05;5.45;;;21.10;28.30;;;;;;5149998;27;48205;-15
2022/03/13 00:57:00;;;;;;;6.53;5.88;;;21.10;28.30;;;;;;5150083;27;47374;-16
2022/03/13 00:59:28;;;;;;;6.45;5.82;;;21.10;28.30;;;;;;5149730;27;47045;-16
2022/03/13 01:01:54;;;;;;;5.95;5.40;;;21.10;28.80;;;;;;5148486;27;46941;-16
2022/03/13 01:04:21;;;;;;;7.25;5.65;;;21.10;28.30;;;;;;5149412;27;48203;-15
2022/03/13 01:06:48;;;;;;;6.35;5.75;;;21.10;28.40;;;;;;5149647;27;46973;-15
2022/03/13 01:09:14;;;;;;;6.63;5.60;;;21.10;28.30;;;;;;5149549;27;46819;-16
2022/03/13 01:11:41;;;;;;;7.40;5.57;;;21.10;28.30;;;;;;5149830;27;46940;-16
2022/03/13 01:14:08;;;;;;;7.07;5.95;;;21.10;28.30;;;;;;5149568;27;48096;-16
2022/03/13 01:16:37;;;;;;;5.88;5.18;;;21.00;28.30;;;;;;5149450;27;46903;-16
2022/03/13 01:19:03;;;;;;;6.13;5.53;;;21.00;28.30;;;;;;5149689;27;46915;-15
2022/03/13 01:21:31;;;;;;;6.75;5.32;;;21.00;28.30;;;;;;5149594;27;46888;-17
2022/03/13 01:24:18;;;;;;;5.60;5.00;;;21.00;28.20;;;;;;5149187;27;48118;-15
2022/03/13 01:26:45;;;;;;;7.00;5.22;;;21.00;28.20;;;;;;5149526;27;47497;-15
2022/03/13 01:29:13;;;;;;;6.15;5.53;;;21.00;28.20;;;;;;5149298;27;46820;-16
2022/03/13 01:31:43;;;;;;;5.93;5.32;;;21.00;28.20;;;;;;5149457;27;46856;-16
2022/03/13 01:34:12;;;;;;;6.18;5.57;;;21.00;28.20;;;;;;5149156;27;47053;-15
2022/03/13 01:36:38;;;;;;;6.00;5.40;;;21.00;28.20;;;;;;5149020;27;46823;-16
2022/03/13 01:39:06;;;;;;;6.03;5.22;;;21.00;28.20;;;;;;5149053;27;46797;-15
2022/03/13 01:41:33;;;;;;;7.00;5.72;;;21.00;28.20;;;;;;5149530;27;47095;-16
2022/03/13 01:44:00;;;;;;;5.78;5.18;;;20.90;28.20;;;;;;5149190;27;48132;-15
2022/03/13 01:46:27;;;;;;;6.15;5.10;;;21.00;28.20;;;;;;5149131;27;46781;-16
2022/03/13 01:48:56;;;;;;;6.70;5.63;;;20.90;28.20;;;;;;5149123;27;46881;-15
2022/03/13 01:51:23;;;;;;;6.85;5.22;;;20.90;28.20;;;;;;5149269;27;46850;-15
2022/03/13 01:53:51;;;;;;;5.60;5.07;;;20.90;28.20;;;;;;5148774;27;49302;-16
2022/03/13 01:56:18;;;;;;;6.30;5.20;;;21.00;28.20;;;;;;5148772;27;46914;-16
2022/03/13 01:58:44;;;;;;;6.82;5.55;;;20.90;28.10;;;;;;5149083;27;46906;-16
2022/03/13 02:01:12;;;;;;;5.80;5.20;;;20.90;28.20;;;;;;5148882;27;46895;-16
2022/03/13 02:03:38;;;;;;;6.85;5.80;;;20.90;28.20;;;;;;5148605;27;48843;-17
2022/03/13 02:06:06;;;;;;;5.95;5.35;;;20.90;28.20;;;;;;5148721;27;46869;-15
2022/03/13 02:08:33;;;;;;;7.05;5.70;;;20.90;28.20;;;;;;5149095;27;46910;-16
2022/03/13 02:11:00;;;;;;;6.30;5.60;;;20.90;28.10;;;;;;5148060;27;46764;-16
2022/03/13 02:13:27;;;;;;;7.10;5.70;;;20.90;28.10;;;;;;5148177;27;48104;-16
2022/03/13 02:15:55;;;;;;;6.28;5.40;;;20.90;28.20;;;;;;5148821;27;47501;-15
2022/03/13 02:18:22;;;;;;;6.68;5.72;;;20.80;28.10;;;;;;5148813;27;46873;-16
2022/03/13 02:20:48;;;;;;;6.40;5.32;;;20.90;28.20;;;;;;5148573;27;47105;-16
2022/03/13 02:23:19;;;;;;;6.03;5.20;;;20.90;28.10;;;;;;5148557;27;48239;-19
2022/03/13 02:25:47;;;;;;;5.78;5.20;;;20.90;28.10;;;;;;5148322;27;47052;-15
2022/03/13 02:28:14;;;;;;;6.78;6.05;;;20.80;28.10;;;;;;5148646;27;46954;-15
2022/03/13 02:30:41;;;;;;;6.78;5.40;;;20.80;28.10;;;;;;5148210;27;46771;-15
2022/03/13 02:33:07;;;;;;;6.05;5.40;;;20.80;28.10;;;;;;5148122;27;48105;-16
2022/03/13 02:35:34;;;;;;;6.70;5.45;;;20.80;28.10;;;;;;5147976;27;46915;-16
2022/03/13 02:38:01;;;;;;;7.25;5.50;;;20.80;28.10;;;;;;5148539;27;46942;-15
2022/03/13 02:40:29;;;;;;;6.47;5.55;;;20.80;28.10;;;;;;5148493;27;47084;-17
2022/03/13 02:42:56;;;;;;;6.18;5.57;;;20.80;28.10;;;;;;5148267;27;48101;-16
2022/03/13 02:45:28;;;;;;;6.32;5.70;;;20.80;28.10;;;;;;5148015;27;46996;-15
2022/03/13 02:47:55;;;;;;;6.78;5.88;;;20.70;28.10;;;;;;5148356;27;46800;-16
2022/03/13 02:50:22;;;;;;;5.80;5.13;;;20.70;28.10;;;;;;5148326;27;46872;-15
2022/03/13 02:52:49;;;;;;;6.43;5.72;;;20.80;28.10;;;;;;5147761;27;48102;-15
2022/03/13 02:55:16;;;;;;;6.50;5.90;;;20.70;28.10;;;;;;5147808;27;47224;-15
2022/03/13 02:57:44;;;;;;;6.43;5.45;;;20.70;28.10;;;;;;5147932;27;47067;-17
2022/03/13 03:00:11;;;;;;;6.03;5.28;;;20.70;28.10;;;;;;5148001;27;46872;-15
2022/03/13 03:02:38;;;;;;;6.05;5.45;;;20.70;28.10;;;;;;5147699;27;47850;-16
2022/03/13 03:05:05;;;;;;;6.95;5.43;;;20.70;28.10;;;;;;5147687;27;46871;-15
2022/03/13 03:07:32;;;;;;;6.22;5.63;;;20.70;28.10;;;;;;5148059;27;46915;-16
2022/03/13 03:09:58;;;;;;;6.40;5.72;;;20.70;28.10;;;;;;5147341;27;47279;-16
2022/03/13 03:12:25;;;;;;;6.47;5.72;;;20.70;28.10;;;;;;5147737;27;46887;-16
2022/03/13 03:14:53;;;;;;;6.20;5.60;;;20.70;28.10;;;;;;5147928;27;47266;-15
2022/03/13 03:17:20;;;;;;;5.65;5.15;;;20.60;28.10;;;;;;5147566;27;46950;-15
2022/03/13 03:19:46;;;;;;;6.35;5.65;;;20.70;28.10;;;;;;5147755;27;48107;-15
2022/03/13 03:22:13;;;;;;;6.22;5.63;;;20.70;28.10;;;;;;5147813;27;48097;-15
2022/03/13 03:24:40;;;;;;;6.53;5.68;;;20.70;28.00;;;;;;5146313;27;46885;-16
2022/03/13 03:27:06;;;;;;;7.20;5.53;;;20.70;28.10;;;;;;5147643;27;46775;-16
2022/03/13 03:29:33;;;;;;;5.95;5.35;;;20.60;28.10;;;;;;5147730;27;47288;-15
2022/03/13 03:32:02;;;;;;;6.40;5.70;;;20.60;28.10;;;;;;5147189;27;48873;-15
2022/03/13 03:34:29;;;;;;;6.10;5.50;;;20.60;28.10;;;;;;5147376;27;47536;-15
2022/03/13 03:36:57;;;;;;;7.07;5.80;;;20.60;28.10;;;;;;5147624;27;46731;-15
2022/03/13 03:39:24;;;;;;;5.88;5.28;;;20.60;28.10;;;;;;5147631;27;47150;-15
2022/03/13 03:41:52;;;;;;;6.32;5.40;;;20.60;28.10;;;;;;5147358;27;46911;-15
2022/03/13 03:44:19;;;;;;;6.63;5.70;;;20.60;28.10;;;;;;5147311;27;46926;-15
2022/03/13 03:46:46;;;;;;;7.05;5.75;;;20.60;28.10;;;;;;5147471;27;46792;-17
2022/03/13 03:49:14;;;;;;;6.28;5.68;;;20.60;28.10;;;;;;5147329;27;47409;-16
2022/03/13 03:51:43;;;;;;;6.13;5.50;;;20.60;28.10;;;;;;5147059;27;48017;-15
2022/03/13 03:54:09;;;;;;;6.07;5.47;;;20.60;28.10;;;;;;5146929;27;46991;-16
2022/03/13 03:56:36;;;;;;;6.22;5.63;;;20.60;28.10;;;;;;5147283;27;46979;-16
2022/03/13 03:59:03;;;;;;;6.13;5.53;;;20.60;28.10;;;;;;5147104;27;47248;-15
2022/03/13 04:01:37;;;;;;;6.30;5.70;;;20.50;28.10;;;;;;5146848;27;47952;-16
2022/03/13 04:04:05;;;;;;;6.57;5.20;;;20.60;28.20;;;;;;5146851;27;47068;-15
2022/03/13 04:06:33;;;;;;;6.88;5.68;;;20.60;28.20;;;;;;5147196;27;46932;-15
2022/03/13 04:09:00;;;;;;;6.03;5.43;;;20.60;28.20;;;;;;5147261;27;46918;-16
2022/03/13 04:11:26;;;;;;;6.53;5.43;;;20.60;28.20;;;;;;5147005;27;48871;-15
2022/03/13 04:13:53;;;;;;;7.05;5.72;;;20.60;28.20;;;;;;5146608;27;47143;-16
2022/03/13 04:16:20;;;;;;;7.57;5.90;;;20.60;28.20;;;;;;5146773;27;46959;-17
2022/03/13 04:18:47;;;;;;;7.07;5.72;;;20.50;28.10;;;;;;5147151;27;47306;-16
2022/03/13 04:21:15;;;;;;;6.78;5.60;;;20.60;28.20;;;;;;5146697;27;48045;-16
2022/03/13 04:23:43;;;;;;;6.88;5.72;;;20.60;28.10;;;;;;5146909;27;47129;-15
2022/03/13 04:26:10;;;;;;;6.38;5.78;;;20.60;28.20;;;;;;5146547;27;46888;-16
2022/03/13 04:28:37;;;;;;;6.20;5.55;;;20.50;28.10;;;;;;5147235;27;47188;-16
2022/03/13 04:31:08;;;;;;;7.20;6.03;;;20.50;28.20;;;;;;5146711;27;48139;-15
2022/03/13 04:33:35;;;;;;;6.88;6.03;;;20.50;28.20;;;;;;5146756;27;46978;-16
2022/03/13 04:36:07;;;;;;;8.98;5.80;;;20.50;28.20;;;;;;5146868;27;47114;-15
2022/03/13 04:38:33;;;;;;;6.47;5.88;;;20.50;28.20;;;;;;5150424;27;47015;-15
2022/03/13 04:41:01;;;;;;;7.65;5.63;;;20.50;28.10;;;;;;5150068;27;49052;-15
2022/03/13 04:43:28;;;;;;;6.97;6.28;;;20.50;28.10;;;;;;5150344;27;46918;-15
2022/03/13 04:45:55;;;;;;;6.63;5.93;;;20.50;28.20;;;;;;5149724;27;46785;-15
2022/03/13 04:48:22;;;;;;;6.60;6.00;;;20.50;28.20;;;;;;5150399;27;47246;-16
2022/03/13 04:50:48;;;;;;;7.22;6.00;;;20.50;28.20;;;;;;5149975;27;49047;-16
2022/03/13 04:53:15;;;;;;;6.60;5.90;;;20.50;28.20;;;;;;5149765;27;46842;-15
2022/03/13 04:55:42;;;;;;;6.28;5.70;;;20.50;28.20;;;;;;5149795;27;47097;-15
2022/03/13 04:58:10;;;;;;;7.55;6.20;;;20.50;28.20;;;;;;5149964;27;46846;-15
2022/03/13 05:00:38;;;;;;;6.60;5.88;;;20.50;28.20;;;;;;5149854;27;48089;-15
2022/03/13 05:03:05;;;;;;;6.32;5.68;;;20.50;28.20;;;;;;5149905;27;46897;-16
2022/03/13 05:05:34;;;;;;;6.38;5.72;;;20.50;28.20;;;;;;5149646;27;46899;-16
2022/03/13 05:08:00;;;;;;;6.22;5.60;;;20.50;28.10;;;;;;5149807;27;47250;-16
2022/03/13 05:10:36;;;;;;;6.55;5.93;;;20.50;28.20;;;;;;5149225;27;47954;-15
2022/03/13 05:13:04;;;;;;;7.00;6.28;;;20.50;28.10;;;;;;5149689;27;46948;-16
2022/03/13 05:15:32;;;;;;;7.07;5.70;;;20.50;28.20;;;;;;5149774;27;46842;-16
2022/03/13 05:17:59;;;;;;;6.82;5.97;;;20.50;28.20;;;;;;5149722;27;47250;-15
2022/03/13 05:20:25;;;;;;;7.97;6.20;;;20.50;28.20;;;;;;5149082;27;46787;-15
2022/03/13 05:22:53;;;;;;;7.07;6.22;;;20.50;28.20;;;;;;5149557;27;46758;-16
2022/03/13 05:25:19;;;;;;;6.93;6.15;;;20.50;28.10;;;;;;5149691;27;46927;-15
2022/03/13 05:27:46;;;;;;;6.68;5.40;;;20.40;28.10;;;;;;5149884;27;46945;-16
2022/03/13 05:30:13;;;;;;;6.90;6.20;;;20.40;28.10;;;;;;5149379;27;47939;-15
2022/03/13 05:32:41;;;;;;;7.00;6.30;;;20.40;28.10;;;;;;5149346;27;47477;-16
2022/03/13 05:35:10;;;;;;;8.05;6.07;;;20.50;28.10;;;;;;5149151;27;46912;-16
2022/03/13 05:37:37;;;;;;;6.70;6.00;;;20.40;28.10;;;;;;5149607;27;47001;-15
2022/03/13 05:40:04;;;;;;;7.13;6.43;;;20.40;28.10;;;;;;5149163;27;48118;-15
2022/03/13 05:42:31;;;;;;;6.93;6.03;;;20.40;28.10;;;;;;5149272;27;46816;-16
2022/03/13 05:44:57;;;;;;;6.97;6.25;;;20.40;28.10;;;;;;5148992;27;46864;-16
2022/03/13 05:47:24;;;;;;;7.50;6.30;;;20.40;28.20;;;;;;5149353;27;47272;-16
2022/03/13 05:49:52;;;;;;;6.30;5.70;;;20.40;28.20;;;;;;5148232;27;47859;-16
2022/03/13 05:52:20;;;;;;;8.25;6.07;;;20.40;28.10;;;;;;5148947;27;46817;-15
2022/03/13 05:54:46;;;;;;;7.32;6.43;;;20.50;28.10;;;;;;5149187;27;47066;-15
2022/03/13 05:57:13;;;;;;;7.65;6.32;;;20.40;28.10;;;;;;5149062;27;46848;-16
2022/03/13 05:59:40;;;;;;;7.88;6.25;;;20.40;28.10;;;;;;5148922;27;47068;-15
2022/03/13 06:02:08;;;;;;;6.68;5.80;;;20.40;28.10;;;;;;5148939;27;47259;-16
2022/03/13 06:04:36;;;;;;;7.25;6.13;;;20.40;28.10;;;;;;5148805;27;46830;-15
2022/03/13 06:07:04;;;;;;;6.72;5.85;;;20.40;28.10;;;;;;5149133;27;46869;-16
2022/03/13 06:09:31;;;;;;;7.97;6.32;;;20.40;28.10;;;;;;5147796;27;47064;-15
2022/03/13 06:11:58;;;;;;;7.47;6.15;;;20.40;28.10;;;;;;5148799;27;46928;-15
2022/03/13 06:14:25;;;;;;;7.07;5.90;;;20.40;28.10;;;;;;5148516;27;46912;-15
2022/03/13 06:16:52;;;;;;;8.10;6.70;;;20.40;28.20;;;;;;5148897;27;46875;-16
2022/03/13 06:19:18;;;;;;;6.72;6.03;;;20.40;28.20;;;;;;5148141;27;49055;-15
2022/03/13 06:21:47;;;;;;;7.40;5.97;;;20.40;28.20;;;;;;5148513;27;47449;-15
2022/03/13 06:24:16;;;;;;;7.22;6.35;;;20.40;28.20;;;;;;5148307;27;46906;-15
2022/03/13 06:26:42;;;;;;;6.90;6.15;;;20.40;28.10;;;;;;5148827;27;47008;-15
2022/03/13 06:29:09;;;;;;;6.47;5.63;;;20.40;28.10;;;;;;5148435;27;48262;-15
2022/03/13 06:31:36;;;;;;;7.05;6.35;;;20.40;28.20;;;;;;5148629;27;46880;-15
2022/03/13 06:34:02;;;;;;;6.75;6.05;;;20.40;28.20;;;;;;5148396;27;46911;-15
2022/03/13 06:36:29;;;;;;;6.72;5.72;;;20.40;28.20;;;;;;5148893;27;46890;-16
2022/03/13 06:38:56;;;;;;;6.72;6.03;;;20.40;28.10;;;;;;5148330;27;48099;-15
2022/03/13 06:41:24;;;;;;;6.90;6.00;;;20.50;28.20;;;;;;5148027;27;46920;-15
2022/03/13 06:43:51;;;;;;;6.55;5.85;;;20.40;28.10;;;;;;5148069;27;46987;-15
2022/03/13 06:46:18;;;;;;;6.18;5.57;;;20.40;28.60;;;;;;5148277;27;47239;-15
2022/03/13 06:48:45;;;;;;;6.72;6.03;;;20.40;28.20;;;;;;5147909;27;47909;-16
2022/03/13 06:51:12;;;;;;;6.82;5.82;;;20.40;28.20;;;;;;5148075;27;47448;-15
2022/03/13 06:53:39;;;;;;;6.32;5.68;;;20.50;28.20;;;;;;5148204;27;46825;-16
2022/03/13 06:56:06;;;;;;;6.55;5.90;;;20.50;28.20;;;;;;5147859;27;47315;-15
2022/03/13 06:58:34;;;;;;;6.78;6.07;;;20.50;28.20;;;;;;5148028;27;48880;-16
2022/03/13 07:01:01;;;;;;;6.68;5.65;;;20.40;28.10;;;;;;5147527;27;47235;-15
2022/03/13 07:03:27;;;;;;;6.88;5.47;;;20.40;28.10;;;;;;5147929;27;46895;-16
2022/03/13 07:05:54;;;;;;;6.72;6.05;;;20.50;28.20;;;;;;5148089;27;47103;-15
2022/03/13 07:08:21;;;;;;;6.85;5.82;;;20.50;28.10;;;;;;5147841;27;47063;-17
2022/03/13 07:10:48;;;;;;;6.80;5.82;;;20.50;28.10;;;;;;5147528;27;46942;-15
2022/03/13 07:13:18;;;;;;;6.78;5.85;;;20.50;28.10;;;;;;5147726;27;46894;-16
2022/03/13 07:15:48;;;;;;;6.88;6.00;;;20.50;28.00;;;;;;5147670;27;46966;-15
2022/03/13 07:18:15;;;;;;;7.15;5.80;;;20.50;28.00;;;;;;5147604;27;48214;-16
2022/03/13 07:20:41;;;;;;;7.35;5.63;;;20.50;28.00;;;;;;5147245;27;46970;-16
2022/03/13 07:23:08;;;;;;;6.60;5.70;;;20.50;28.00;;;;;;5147753;27;46934;-16
2022/03/13 07:25:35;;;;;;;6.68;5.97;;;20.60;28.00;;;;;;5147766;27;46933;-15
2022/03/13 07:28:02;;;;;;;5.95;5.30;;;20.60;28.00;;;;;;5147763;27;48212;-16
2022/03/13 07:30:28;;;;;;;6.82;5.78;;;20.60;27.90;;;;;;5147219;27;46985;-16
2022/03/13 07:32:57;;;;;;;6.68;5.55;;;20.60;27.90;;;;;;5147752;27;46867;-16
2022/03/13 07:35:23;;;;;;;6.15;5.55;;;20.60;28.00;;;;;;5147562;27;46907;-15
2022/03/13 07:37:50;;;;;;;6.90;5.50;;;20.60;28.00;;;;;;5147173;27;47927;-16
2022/03/13 07:40:17;;;;;;;7.18;5.63;;;20.60;28.00;;;;;;5147087;27;47089;-15
2022/03/13 07:42:44;;;;;;;7.13;5.70;;;20.50;28.10;;;;;;5147580;27;46810;-17
2022/03/13 07:45:11;;;;;;;6.47;5.47;;;20.60;28.10;;;;;;5147451;27;46903;-15
2022/03/13 07:47:37;;;;;;;6.13;5.25;;;20.50;28.10;;;;;;5147382;27;48273;-17
2022/03/13 07:50:07;;;;;;;6.53;5.57;;;20.60;28.10;;;;;;5147394;27;46973;-15
2022/03/13 07:52:33;;;;;;;5.97;5.35;;;20.60;28.10;;;;;;5147420;27;46914;-16
2022/03/13 07:55:00;;;;;;;6.70;5.40;;;20.60;28.10;;;;;;5147211;27;46981;-15
2022/03/13 07:57:28;;;;;;;5.57;5.00;;;20.60;28.10;;;;;;5146978;27;49113;-15
2022/03/13 07:59:55;;;;;;;6.22;5.60;;;20.60;28.10;;;;;;5147362;27;46792;-15
2022/03/13 08:02:22;;;;;;;5.85;5.13;;;20.60;28.10;;;;;;5147293;27;46990;-15
2022/03/13 08:04:48;;;;;;;5.72;5.03;;;20.70;28.10;;;;;;5147345;27;47016;-16
2022/03/13 08:07:16;;;;;;;6.00;5.40;;;20.70;28.00;;;;;;5146791;27;47842;-16
2022/03/13 08:09:43;;;;;;;6.50;5.80;;;20.70;28.00;;;;;;5146703;27;47395;-15
2022/03/13 08:12:10;;;;;;;6.70;5.80;;;20.70;28.00;;;;;;5149231;27;47161;-15
2022/03/13 08:14:36;;;;;;;5.70;5.00;;;20.70;28.00;;;;;;5150686;27;47346;-15
2022/03/13 08:17:04;;;;;;;6.53;5.57;;;20.70;28.00;;;;;;5150723;27;48140;-15
2022/03/13 08:19:30;;;;;;;6.18;4.97;;;20.80;28.00;;;;;;5150303;27;47000;-16
2022/03/13 08:21:57;;;;;;;6.65;5.40;;;20.80;28.00;;;;;;5150789;27;46743;-16
2022/03/13 08:24:26;;;;;;;6.30;5.32;;;20.80;28.00;;;;;;5150617;27;47146;-15
2022/03/13 08:26:52;;;;;;;5.60;5.10;;;20.80;27.90;;;;;;5150201;27;47931;-15
2022/03/13 08:29:19;;;;;;;5.32;4.82;;;20.90;27.90;;;;;;5150346;27;46927;-17
2022/03/13 08:31:46;;;;;;;6.32;5.20;;;20.90;27.90;;;;;;5150620;27;46742;-15
2022/03/13 08:34:12;;;;;;;5.13;4.63;;;20.90;28.00;;;;;;5150420;27;47276;-15
2022/03/13 08:36:40;;;;;;;5.70;5.10;;;20.90;28.00;;;;;;5150360;27;47055;-16
2022/03/13 08:39:07;;;;;;;6.15;5.05;;;20.90;28.00;;;;;;5150229;27;47013;-17
2022/03/13 08:41:35;;;;;;;5.57;4.78;;;20.90;28.00;;;;;;5150152;27;46962;-15
2022/03/13 08:44:02;;;;;;;5.47;4.97;;;20.90;28.00;;;;;;5150553;27;46902;-15
2022/03/13 08:46:29;;;;;;;5.57;5.05;;;21.00;28.00;;;;;;5150199;27;47666;-16
2022/03/13 08:48:55;;;;;;;4.97;4.53;;;21.00;27.90;;;;;;5150202;27;47467;-16
2022/03/13 08:51:23;;;;;;;5.95;5.05;;;21.00;27.90;;;;;;5150207;27;46871;-16
2022/03/13 08:53:50;;;;;;;5.07;4.43;;;21.00;27.90;;;;;;5150254;27;46919;-15
2022/03/13 08:56:17;;;;;;;5.28;4.72;;;21.00;28.00;;;;;;5150099;27;48781;-16
2022/03/13 08:58:45;;;;;;;5.40;4.95;;;21.00;28.00;;;;;;5149649;27;46979;-15
2022/03/13 09:01:12;;;;;;;4.88;4.32;;;21.00;28.00;;;;;;5149586;27;46927;-15
2022/03/13 09:03:38;;;;;;;5.47;4.78;;;21.00;28.00;;;;;;5149253;27;47045;-18
2022/03/13 09:06:05;;;;;;;5.68;4.75;;;21.00;28.00;;;;;;5149033;27;47770;-17
2022/03/13 09:08:32;;;;;;;5.18;4.47;;;21.00;28.00;;;;;;5149795;27;46762;-16
2022/03/13 09:10:59;;;;;;;5.10;4.47;;;21.00;28.00;;;;;;5149543;27;47001;-15
2022/03/13 09:13:25;;;;;;;5.45;4.70;;;21.00;28.10;;;;;;5149771;27;46849;-16
2022/03/13 09:15:53;;;;;;;5.03;4.53;;;21.00;28.10;;;;;;5149698;27;48771;-16
2022/03/13 09:18:20;;;;;;;5.53;4.68;;;21.10;28.10;;;;;;5149665;27;46938;-16
2022/03/13 09:20:47;;;;;;;5.65;4.72;;;21.10;28.00;;;;;;5149877;27;46906;-15
2022/03/13 09:23:13;;;;;;;5.00;4.50;;;21.10;28.00;;;;;;5148624;27;47095;-15
2022/03/13 09:25:40;;;;;;;5.35;4.85;;;21.10;28.00;;;;;;5149341;27;48127;-15
2022/03/13 09:28:07;;;;;;;5.07;4.50;;;21.20;28.00;;;;;;5149405;27;46947;-16
2022/03/13 09:30:33;;;;;;;5.35;4.75;;;21.20;28.00;;;;;;5149450;27;46845;-16
2022/03/13 09:33:01;;;;;;;5.75;4.63;;;21.10;28.10;;;;;;5149540;27;46871;-16
2022/03/13 09:35:28;;;;;;;5.20;4.70;;;21.10;28.60;;;;;;5149391;27;47868;-15
2022/03/13 09:37:55;;;;;;;4.85;4.35;;;21.10;28.10;;;;;;5149092;27;47000;-16
2022/03/13 09:40:22;;;;;;;5.18;4.20;;;21.20;28.10;;;;;;5149377;27;46997;-15
2022/03/13 09:42:49;;;;;;;5.45;4.20;;;21.20;28.20;;;;;;5149478;27;46935;-16
2022/03/13 09:45:16;;;;;;;4.63;4.22;;;21.20;28.10;;;;;;5149069;27;49041;-17
2022/03/13 09:47:42;;;;;;;5.10;4.47;;;21.30;28.10;;;;;;5148842;27;46755;-17
2022/03/13 09:50:12;;;;;;;4.82;4.30;;;21.30;28.10;;;;;;5149091;27;46991;-15
2022/03/13 09:52:40;;;;;;;4.85;4.28;;;21.30;28.10;;;;;;5149452;27;46841;-15
2022/03/13 09:55:07;;;;;;;4.53;4.07;;;21.30;28.10;;;;;;5148723;27;48874;-15
2022/03/13 09:57:36;;;;;;;4.78;4.22;;;21.30;28.20;;;;;;5148824;27;46964;-16
2022/03/13 10:00:05;;;;;;;4.40;4.00;;;21.30;28.00;;;;;;5148771;27;47039;-15
2022/03/13 10:02:36;;;;;;;4.68;4.28;;;21.40;28.20;;;;;;5149245;27;46898;-16
2022/03/13 10:05:08;;;;;;;4.80;4.30;;;21.40;28.10;;;;;;5148552;27;48807;-15
2022/03/13 10:07:52;;;;;;;5.50;4.40;;;21.40;28.10;;;;;;5148616;27;47161;-15
2022/03/13 10:10:19;;;;;;;4.15;3.75;;;21.50;28.10;;;;;;5147989;27;46944;-15
2022/03/13 10:12:46;;;;;;;4.88;4.35;;;21.60;28.10;;;;;;5149050;27;46915;-16
2022/03/13 10:15:13;;;;;;;5.25;4.60;;;21.60;28.00;;;;;;5148267;27;49086;-15
2022/03/13 10:17:40;;;;;;;4.70;4.10;;;21.60;28.00;;;;;;5148726;27;46830;-16
2022/03/13 10:20:19;;;;;;;4.60;3.90;;;21.60;28.00;;;;;;5141218;27;46927;-16
2022/03/13 10:22:48;;;;;;;5.13;3.90;;;21.70;27.90;;;;;;5127236;27;46993;-16
2022/03/13 10:25:19;;;;;;;4.00;3.63;;;21.70;28.10;;;;;;5127059;27;47943;-16
2022/03/13 10:27:46;;;;;;;4.18;3.78;;;21.70;28.10;;;;;;5126942;27;47034;-16
2022/03/13 10:30:13;;;;;;;4.40;3.97;;;21.70;28.10;;;;;;5127485;27;46878;-15
2022/03/13 10:32:40;;;;;;;4.78;4.15;;;21.70;28.10;;;;;;5127784;27;46872;-17
2022/03/13 10:35:07;;;;;;;4.30;3.90;;;21.70;28.10;;;;;;5127030;27;46875;-16
2022/03/13 10:37:35;;;;;;;4.20;3.80;;;21.70;28.10;;;;;;5127448;27;46817;-16
2022/03/13 10:40:14;;;;;;;4.28;3.88;;;21.80;28.20;;;;;;5127637;27;46858;-16
2022/03/13 10:42:43;;;;;;;4.35;3.95;;;21.80;28.20;;;;;;5127576;27;46906;-17
2022/03/13 10:45:10;;;;;;;4.40;4.00;;;21.80;28.20;;;;;;5126959;27;49021;-17
2022/03/13 10:47:37;;;;;;;4.57;4.07;;;21.80;28.20;;;;;;5127204;27;47000;-18
2022/03/13 10:50:06;;;;;;;4.50;4.10;;;21.90;28.20;;;;;;5127347;27;46841;-16
2022/03/13 10:52:36;;;;;;;4.30;3.90;;;21.90;28.20;;;;;;5127532;27;46887;-16
2022/03/13 10:55:19;;;;;;;4.68;4.05;;;22.00;28.20;;;;;;5127362;27;49080;-16
2022/03/13 10:57:50;;;;;;;5.82;3.85;;;22.10;28.20;;;;;;5127317;27;46894;-16
2022/03/13 11:00:17;;;;;;;4.85;3.80;;;22.10;28.20;;;;;;5132316;27;46836;-16
2022/03/13 11:02:44;;;;;;;5.20;3.65;;;22.20;28.20;;;;;;5127507;27;46868;-16
2022/03/13 11:05:11;;;;;;;4.65;3.63;;;22.20;28.20;;;;;;5137456;27;47982;-16
2022/03/13 11:07:37;;;;;;;4.50;3.88;;;22.20;28.10;;;;;;5128371;27;46898;-17
2022/03/13 11:10:07;;;;;;;4.32;3.63;;;22.30;28.20;;;;;;5126883;27;46964;-15
2022/03/13 11:12:35;;;;;;;4.30;3.90;;;22.30;28.20;;;;;;5144958;27;46961;-15
2022/03/13 11:15:02;;;;;;;4.55;4.15;;;22.40;28.10;;;;;;5146515;27;48977;-15
2022/03/13 11:17:30;;;;;;;4.70;3.83;;;22.40;28.10;;;;;;5146428;27;46979;-17
2022/03/13 11:19:58;;;;;;;5.15;3.67;;;22.40;28.20;;;;;;5147473;27;46848;-16
2022/03/13 11:22:25;;;;;;;3.88;3.55;;;22.50;28.20;;;;;;5147971;27;46857;-16
2022/03/13 11:24:52;;;;;;;4.15;3.70;;;22.50;28.70;;;;;;5145996;27;47880;-15
2022/03/13 11:27:20;;;;;;;7.47;3.85;;;22.60;28.20;;;;;;5146957;27;47235;-16
2022/03/13 11:29:51;;;;;;;4.72;4.00;;;22.70;28.20;;;;;;5146621;27;46922;-16
2022/03/13 11:32:31;;;;;;;5.88;4.22;;;22.80;28.10;;;;;;5146429;27;46918;-16
2022/03/13 11:35:25;;;;;;;4.35;3.92;;;22.80;28.10;;;;;;5144899;27;47931;-15
2022/03/13 11:37:53;;;;;;;5.15;4.10;;;22.80;28.20;;;;;;5141782;27;47019;-16
2022/03/13 11:40:21;;;;;;;3.97;3.55;;;22.70;28.20;;;;;;5146265;27;47092;-15
2022/03/13 11:42:48;;;;;;;5.25;3.78;;;22.70;28.30;;;;;;5146142;27;46915;-16
2022/03/13 11:45:34;;;;;;;4.75;3.85;;;22.80;28.10;;;;;;5146534;27;49047;-15
2022/03/13 11:48:46;;;;;;;4.00;3.70;;;23.00;28.00;;;;;;5146635;27;47667;-16
2022/03/13 11:51:30;;;;;;;5.07;3.60;;;23.10;27.90;;;;;;5126391;27;46942;-20
2022/03/13 11:53:58;;;;;;;6.10;3.58;;;23.20;27.90;;;;;;5126766;27;47232;-16
2022/03/13 11:56:29;;;;;;;4.13;3.72;;;23.20;27.90;;;;;;5126107;27;49071;-15
2022/03/13 11:58:59;;;;;;;4.15;3.63;;;23.20;27.90;;;;;;5126541;27;47436;-15
2022/03/13 12:01:38;;;;;;;5.97;3.92;;;23.20;28.00;;;;;;5127086;27;46919;-15
2022/03/13 12:04:26;;;;;;;5.53;3.95;;;23.20;27.90;;;;;;5145836;27;47149;-15
2022/03/13 12:06:58;;;;;;;5.10;4.05;;;23.30;27.90;;;;;;5143157;27;47790;-16
2022/03/13 12:09:43;;;;;;;4.40;4.00;;;23.30;27.90;;;;;;5146140;27;47526;-15
2022/03/13 12:12:12;;;;;;;4.00;3.60;;;23.20;27.90;;;;;;5146869;27;46931;-16
2022/03/13 12:14:53;;;;;;;5.13;4.13;;;23.20;28.00;;;;;;5147164;27;46965;-16
2022/03/13 12:17:25;;;;;;;4.63;3.70;;;23.20;28.20;;;;;;5146644;27;48196;-16
2022/03/13 12:19:52;;;;;;;4.18;3.78;;;23.30;28.20;;;;;;5146851;27;47489;-15
2022/03/13 12:22:24;;;;;;;5.85;4.20;;;23.20;28.20;;;;;;5145270;27;46977;-16
2022/03/13 12:24:51;;;;;;;4.65;4.25;;;23.20;28.30;;;;;;5145742;27;47521;-16
2022/03/13 12:27:19;;;;;;;5.13;4.63;;;23.20;28.30;;;;;;5145272;27;48813;-16
2022/03/13 12:29:50;;;;;;;5.05;3.92;;;23.20;28.30;;;;;;5144994;27;47403;-15
2022/03/13 12:32:17;;;;;;;6.65;4.43;;;23.10;28.40;;;;;;5145771;27;47187;-15
2022/03/13 12:34:45;;;;;;;4.82;4.28;;;23.10;28.40;;;;;;5146599;27;46922;-15
2022/03/13 12:37:11;;;;;;;5.38;4.15;;;23.20;28.50;;;;;;5146732;27;48102;-15
2022/03/13 12:39:48;;;;;;;4.72;4.20;;;23.20;28.50;;;;;;5146385;27;46922;-15
2022/03/13 12:42:20;;;;;;;5.90;4.68;;;23.20;28.40;;;;;;5143361;27;48096;-15
2022/03/13 12:44:59;;;;;;;5.20;3.80;;;23.30;28.30;;;;;;5146012;27;47242;-15
2022/03/13 12:47:27;;;;;;;4.43;4.03;;;23.40;28.30;;;;;;5146315;27;49493;-15
2022/03/13 12:49:59;;;;;;;4.85;4.20;;;23.50;28.20;;;;;;5146430;27;46875;-15
2022/03/13 12:52:25;;;;;;;4.97;4.38;;;23.60;28.00;;;;;;5146385;27;46825;-15